Terminal Aerodrome Forecast
Issued by NWS

Home | Current Version | Previous Version | Text Only | Print | Product List | Glossary On
Versions: 1 2 3 4 5 6 7 8 9 10 11 12 13 14 15
663
FTUS43 KMQT 241725
TAFIWD
TAF
KIWD 241725Z 2418/2518 30003KT P6SM VCTS SCT035CB
     FM242100 36005KT P6SM VCTS SCT035CB
     FM242200 01005KT P6SM SCT060
     FM250500 01005KT 3/4SM BR OVC006
     FM251100 08003KT 4SM BR SCT008
     FM251300 09004KT P6SM BKN015
     FM251600 10007KT P6SM BKN070
      AMD NOT SKED=

USA.gov is the U.S. government's official web portal to all federal, state and local government web resources and services.